sensor_id;sensor_type;location;lat;lon;timestamp;temperature;humidity
22065;DHT22;11197;53.110;8.468;2023-03-11T00:01:31;1.40;99.90
22065;DHT22;11197;53.110;8.468;2023-03-11T00:03:57;1.40;99.90
22065;DHT22;11197;53.110;8.468;2023-03-11T00:06:24;1.40;99.90
22065;DHT22;11197;53.110;8.468;2023-03-11T00:08:50;1.30;99.90
22065;DHT22;11197;53.110;8.468;2023-03-11T00:11:16;1.30;99.90
22065;DHT22;11197;53.110;8.468;2023-03-11T00:13:44;1.30;99.90
22065;DHT22;11197;53.110;8.468;2023-03-11T00:16:10;1.30;99.90
22065;DHT22;11197;53.110;8.468;2023-03-11T00:18:36;1.30;99.90
22065;DHT22;11197;53.110;8.468;2023-03-11T00:21:01;1.20;99.90
22065;DHT22;11197;53.110;8.468;2023-03-11T00:23:28;1.20;99.90
22065;DHT22;11197;53.110;8.468;2023-03-11T00:25:54;1.60;99.90
22065;DHT22;11197;53.110;8.468;2023-03-11T00:28:20;1.70;99.90
22065;DHT22;11197;53.110;8.468;2023-03-11T00:30:49;1.70;99.90
22065;DHT22;11197;53.110;8.468;2023-03-11T00:33:15;1.60;99.90
22065;DHT22;11197;53.110;8.468;2023-03-11T00:35:42;1.50;99.90
22065;DHT22;11197;53.110;8.468;2023-03-11T00:38:12;1.50;99.90
22065;DHT22;11197;53.110;8.468;2023-03-11T00:40:38;1.40;99.90
22065;DHT22;11197;53.110;8.468;2023-03-11T00:43:04;1.40;99.90
22065;DHT22;11197;53.110;8.468;2023-03-11T00:45:30;1.30;99.90
22065;DHT22;11197;53.110;8.468;2023-03-11T00:47:56;1.30;99.90
22065;DHT22;11197;53.110;8.468;2023-03-11T00:50:26;1.30;99.90
22065;DHT22;11197;53.110;8.468;2023-03-11T00:52:52;1.30;99.90
22065;DHT22;11197;53.110;8.468;2023-03-11T00:55:28;1.20;99.90
22065;DHT22;11197;53.110;8.468;2023-03-11T00:57:56;1.30;99.90
22065;DHT22;11197;53.110;8.468;2023-03-11T01:00:26;1.30;99.90
22065;DHT22;11197;53.110;8.468;2023-03-11T01:02:53;1.30;99.90
22065;DHT22;11197;53.110;8.468;2023-03-11T01:05:25;1.30;99.90
22065;DHT22;11197;53.110;8.468;2023-03-11T01:07:51;1.30;99.90
22065;DHT22;11197;53.110;8.468;2023-03-11T01:10:19;1.30;99.90
22065;DHT22;11197;53.110;8.468;2023-03-11T01:12:44;1.30;99.90
22065;DHT22;11197;53.110;8.468;2023-03-11T01:15:32;1.30;99.90
22065;DHT22;11197;53.110;8.468;2023-03-11T01:17:58;1.20;99.90
22065;DHT22;11197;53.110;8.468;2023-03-11T01:20:24;1.30;99.90
22065;DHT22;11197;53.110;8.468;2023-03-11T01:22:51;1.30;99.90
22065;DHT22;11197;53.110;8.468;2023-03-11T01:25:19;1.30;99.90
22065;DHT22;11197;53.110;8.468;2023-03-11T01:27:45;1.20;99.90
22065;DHT22;11197;53.110;8.468;2023-03-11T01:30:14;1.20;99.90
22065;DHT22;11197;53.110;8.468;2023-03-11T01:32:41;1.20;99.90
22065;DHT22;11197;53.110;8.468;2023-03-11T01:35:11;1.20;99.90
22065;DHT22;11197;53.110;8.468;2023-03-11T01:37:37;1.20;99.90
22065;DHT22;11197;53.110;8.468;2023-03-11T01:40:04;1.20;99.90
22065;DHT22;11197;53.110;8.468;2023-03-11T01:42:30;1.20;99.90
22065;DHT22;11197;53.110;8.468;2023-03-11T01:44:56;1.10;99.90
22065;DHT22;11197;53.110;8.468;2023-03-11T01:47:33;1.20;99.90
22065;DHT22;11197;53.110;8.468;2023-03-11T01:50:00;1.10;99.90
22065;DHT22;11197;53.110;8.468;2023-03-11T01:52:27;1.10;99.90
22065;DHT22;11197;53.110;8.468;2023-03-11T01:54:53;1.10;99.90
22065;DHT22;11197;53.110;8.468;2023-03-11T01:57:20;1.10;99.90
22065;DHT22;11197;53.110;8.468;2023-03-11T01:59:51;1.10;99.90
22065;DHT22;11197;53.110;8.468;2023-03-11T02:05:16;1.10;99.90
22065;DHT22;11197;53.110;8.468;2023-03-11T02:07:42;1.10;99.90
22065;DHT22;11197;53.110;8.468;2023-03-11T02:10:12;1.00;99.90
22065;DHT22;11197;53.110;8.468;2023-03-11T02:12:39;1.10;99.90
22065;DHT22;11197;53.110;8.468;2023-03-11T02:15:08;1.00;99.90
22065;DHT22;11197;53.110;8.468;2023-03-11T02:17:36;1.00;99.90
22065;DHT22;11197;53.110;8.468;2023-03-11T02:22:31;1.00;99.90
22065;DHT22;11197;53.110;8.468;2023-03-11T02:27:49;1.00;99.90
22065;DHT22;11197;53.110;8.468;2023-03-11T02:30:18;1.00;99.90
22065;DHT22;11197;53.110;8.468;2023-03-11T02:32:45;1.00;99.90
22065;DHT22;11197;53.110;8.468;2023-03-11T02:35:17;1.00;99.90
22065;DHT22;11197;53.110;8.468;2023-03-11T02:37:48;1.00;99.90
22065;DHT22;11197;53.110;8.468;2023-03-11T02:42:56;1.00;99.90
22065;DHT22;11197;53.110;8.468;2023-03-11T02:45:24;1.10;99.90
22065;DHT22;11197;53.110;8.468;2023-03-11T02:47:52;1.00;99.90
22065;DHT22;11197;53.110;8.468;2023-03-11T02:50:19;1.00;99.90
22065;DHT22;11197;53.110;8.468;2023-03-11T02:52:48;1.10;99.90
22065;DHT22;11197;53.110;8.468;2023-03-11T02:55:15;1.10;99.90
22065;DHT22;11197;53.110;8.468;2023-03-11T02:57:43;1.10;99.90
22065;DHT22;11197;53.110;8.468;2023-03-11T03:00:11;1.10;99.90
22065;DHT22;11197;53.110;8.468;2023-03-11T03:02:44;1.10;99.90
22065;DHT22;11197;53.110;8.468;2023-03-11T03:05:11;1.10;99.90
22065;DHT22;11197;53.110;8.468;2023-03-11T03:07:37;1.10;99.90
22065;DHT22;11197;53.110;8.468;2023-03-11T03:10:04;1.10;99.90
22065;DHT22;11197;53.110;8.468;2023-03-11T03:12:30;1.10;99.90
22065;DHT22;11197;53.110;8.468;2023-03-11T03:14:56;1.10;99.90
22065;DHT22;11197;53.110;8.468;2023-03-11T03:17:23;1.10;99.90
22065;DHT22;11197;53.110;8.468;2023-03-11T03:19:49;1.10;99.90
22065;DHT22;11197;53.110;8.468;2023-03-11T03:22:15;1.10;99.90
22065;DHT22;11197;53.110;8.468;2023-03-11T03:24:42;1.10;99.90
22065;DHT22;11197;53.110;8.468;2023-03-11T03:27:08;1.10;99.90
22065;DHT22;11197;53.110;8.468;2023-03-11T03:29:34;1.10;99.90
22065;DHT22;11197;53.110;8.468;2023-03-11T03:32:00;1.00;99.90
22065;DHT22;11197;53.110;8.468;2023-03-11T03:34:26;1.00;99.90
22065;DHT22;11197;53.110;8.468;2023-03-11T03:36:51;1.00;99.90
22065;DHT22;11197;53.110;8.468;2023-03-11T03:39:17;1.00;99.90
22065;DHT22;11197;53.110;8.468;2023-03-11T03:41:46;0.90;99.90
22065;DHT22;11197;53.110;8.468;2023-03-11T03:44:12;1.00;99.90
22065;DHT22;11197;53.110;8.468;2023-03-11T03:46:38;1.00;99.90
22065;DHT22;11197;53.110;8.468;2023-03-11T03:49:06;1.00;99.90
22065;DHT22;11197;53.110;8.468;2023-03-11T03:51:33;0.90;99.90
22065;DHT22;11197;53.110;8.468;2023-03-11T03:54:22;0.90;99.90
22065;DHT22;11197;53.110;8.468;2023-03-11T03:56:51;1.00;99.90
22065;DHT22;11197;53.110;8.468;2023-03-11T03:59:17;0.90;99.90
22065;DHT22;11197;53.110;8.468;2023-03-11T04:01:49;0.90;99.90
22065;DHT22;11197;53.110;8.468;2023-03-11T04:04:17;0.90;99.90
22065;DHT22;11197;53.110;8.468;2023-03-11T04:06:43;0.90;99.90
22065;DHT22;11197;53.110;8.468;2023-03-11T04:09:10;0.90;99.90
22065;DHT22;11197;53.110;8.468;2023-03-11T04:11:36;0.90;99.90
22065;DHT22;11197;53.110;8.468;2023-03-11T04:14:04;0.90;99.90
22065;DHT22;11197;53.110;8.468;2023-03-11T04:16:33;1.00;99.90
22065;DHT22;11197;53.110;8.468;2023-03-11T04:19:03;0.90;99.90
22065;DHT22;11197;53.110;8.468;2023-03-11T04:21:31;0.90;99.90
22065;DHT22;11197;53.110;8.468;2023-03-11T04:23:58;0.90;99.90
22065;DHT22;11197;53.110;8.468;2023-03-11T04:26:29;0.90;99.90
22065;DHT22;11197;53.110;8.468;2023-03-11T04:28:55;0.90;99.90
22065;DHT22;11197;53.110;8.468;2023-03-11T04:31:23;0.90;99.90
22065;DHT22;11197;53.110;8.468;2023-03-11T04:33:49;0.90;99.90
22065;DHT22;11197;53.110;8.468;2023-03-11T04:36:15;1.00;99.90
22065;DHT22;11197;53.110;8.468;2023-03-11T04:38:41;1.00;99.90
22065;DHT22;11197;53.110;8.468;2023-03-11T04:41:09;0.90;99.90
22065;DHT22;11197;53.110;8.468;2023-03-11T04:43:38;1.00;99.90
22065;DHT22;11197;53.110;8.468;2023-03-11T04:46:04;1.00;99.90
22065;DHT22;11197;53.110;8.468;2023-03-11T04:48:30;1.00;99.90
22065;DHT22;11197;53.110;8.468;2023-03-11T04:50:57;1.00;99.90
22065;DHT22;11197;53.110;8.468;2023-03-11T04:53:23;1.00;99.90
22065;DHT22;11197;53.110;8.468;2023-03-11T04:55:50;1.00;99.90
22065;DHT22;11197;53.110;8.468;2023-03-11T04:58:24;1.00;99.90
22065;DHT22;11197;53.110;8.468;2023-03-11T05:00:52;1.10;99.90
22065;DHT22;11197;53.110;8.468;2023-03-11T05:03:24;1.10;99.90
22065;DHT22;11197;53.110;8.468;2023-03-11T05:05:50;1.00;99.90
22065;DHT22;11197;53.110;8.468;2023-03-11T05:08:19;1.00;99.90
22065;DHT22;11197;53.110;8.468;2023-03-11T05:10:45;1.00;99.90
22065;DHT22;11197;53.110;8.468;2023-03-11T05:13:11;1.00;99.90
22065;DHT22;11197;53.110;8.468;2023-03-11T05:15:39;1.00;99.90
22065;DHT22;11197;53.110;8.468;2023-03-11T05:18:06;1.00;99.90
22065;DHT22;11197;53.110;8.468;2023-03-11T05:20:33;1.00;99.90
22065;DHT22;11197;53.110;8.468;2023-03-11T05:22:59;1.00;99.90
22065;DHT22;11197;53.110;8.468;2023-03-11T05:25:26;1.00;99.90
22065;DHT22;11197;53.110;8.468;2023-03-11T05:27:52;0.90;99.90
22065;DHT22;11197;53.110;8.468;2023-03-11T05:30:19;0.90;99.90
22065;DHT22;11197;53.110;8.468;2023-03-11T05:32:46;0.90;99.90
22065;DHT22;11197;53.110;8.468;2023-03-11T05:35:13;0.90;99.90
22065;DHT22;11197;53.110;8.468;2023-03-11T05:37:39;0.90;99.90
22065;DHT22;11197;53.110;8.468;2023-03-11T05:40:08;0.90;99.90
22065;DHT22;11197;53.110;8.468;2023-03-11T05:42:37;0.90;99.90
22065;DHT22;11197;53.110;8.468;2023-03-11T05:45:06;1.00;99.90
22065;DHT22;11197;53.110;8.468;2023-03-11T05:47:33;1.00;99.90
22065;DHT22;11197;53.110;8.468;2023-03-11T05:49:59;1.00;99.90
22065;DHT22;11197;53.110;8.468;2023-03-11T05:52:25;1.00;99.90
22065;DHT22;11197;53.110;8.468;2023-03-11T05:54:51;1.00;99.90
22065;DHT22;11197;53.110;8.468;2023-03-11T05:57:21;1.00;99.90
22065;DHT22;11197;53.110;8.468;2023-03-11T05:59:47;1.00;99.90
22065;DHT22;11197;53.110;8.468;2023-03-11T06:02:14;1.00;99.90
22065;DHT22;11197;53.110;8.468;2023-03-11T06:04:40;1.00;99.90
22065;DHT22;11197;53.110;8.468;2023-03-11T06:07:08;1.00;99.90
22065;DHT22;11197;53.110;8.468;2023-03-11T06:09:37;1.10;99.90
22065;DHT22;11197;53.110;8.468;2023-03-11T06:12:06;1.10;99.90
22065;DHT22;11197;53.110;8.468;2023-03-11T06:14:47;1.00;99.90
22065;DHT22;11197;53.110;8.468;2023-03-11T06:17:12;1.10;99.90
22065;DHT22;11197;53.110;8.468;2023-03-11T06:19:38;1.00;99.90
22065;DHT22;11197;53.110;8.468;2023-03-11T06:22:05;1.00;99.90
22065;DHT22;11197;53.110;8.468;2023-03-11T06:24:31;1.00;99.90
22065;DHT22;11197;53.110;8.468;2023-03-11T06:26:57;1.00;99.90
22065;DHT22;11197;53.110;8.468;2023-03-11T06:29:25;1.00;99.90
22065;DHT22;11197;53.110;8.468;2023-03-11T06:31:52;0.90;99.90
22065;DHT22;11197;53.110;8.468;2023-03-11T06:34:18;0.90;99.90
22065;DHT22;11197;53.110;8.468;2023-03-11T06:36:44;0.90;99.90
22065;DHT22;11197;53.110;8.468;2023-03-11T06:39:14;0.90;99.90
22065;DHT22;11197;53.110;8.468;2023-03-11T06:41:41;0.90;99.90
22065;DHT22;11197;53.110;8.468;2023-03-11T06:44:10;0.90;99.90
22065;DHT22;11197;53.110;8.468;2023-03-11T06:46:37;0.90;99.90
22065;DHT22;11197;53.110;8.468;2023-03-11T06:49:04;0.90;99.90
22065;DHT22;11197;53.110;8.468;2023-03-11T06:51:31;0.90;99.90
22065;DHT22;11197;53.110;8.468;2023-03-11T06:53:57;0.90;99.90
22065;DHT22;11197;53.110;8.468;2023-03-11T06:56:24;0.90;99.90
22065;DHT22;11197;53.110;8.468;2023-03-11T06:58:55;0.90;99.90
22065;DHT22;11197;53.110;8.468;2023-03-11T07:01:25;0.90;99.90
22065;DHT22;11197;53.110;8.468;2023-03-11T07:03:54;0.90;99.90
22065;DHT22;11197;53.110;8.468;2023-03-11T07:06:23;0.90;99.90
22065;DHT22;11197;53.110;8.468;2023-03-11T07:08:52;0.90;99.90
22065;DHT22;11197;53.110;8.468;2023-03-11T07:11:24;0.90;99.90
22065;DHT22;11197;53.110;8.468;2023-03-11T07:13:53;0.90;99.90
22065;DHT22;11197;53.110;8.468;2023-03-11T07:16:22;0.80;99.90
22065;DHT22;11197;53.110;8.468;2023-03-11T07:18:51;0.80;99.90
22065;DHT22;11197;53.110;8.468;2023-03-11T07:21:21;0.80;99.90
22065;DHT22;11197;53.110;8.468;2023-03-11T07:23:54;0.90;99.90
22065;DHT22;11197;53.110;8.468;2023-03-11T07:26:21;0.90;99.90
22065;DHT22;11197;53.110;8.468;2023-03-11T07:28:47;0.90;99.90
22065;DHT22;11197;53.110;8.468;2023-03-11T07:31:17;0.90;99.90
22065;DHT22;11197;53.110;8.468;2023-03-11T07:33:44;0.90;99.90
22065;DHT22;11197;53.110;8.468;2023-03-11T07:36:15;0.90;99.90
22065;DHT22;11197;53.110;8.468;2023-03-11T07:38:41;0.90;99.90
22065;DHT22;11197;53.110;8.468;2023-03-11T07:41:09;0.90;99.90
22065;DHT22;11197;53.110;8.468;2023-03-11T07:43:36;1.00;99.90
22065;DHT22;11197;53.110;8.468;2023-03-11T07:46:15;0.90;99.90
22065;DHT22;11197;53.110;8.468;2023-03-11T07:48:43;1.00;99.90
22065;DHT22;11197;53.110;8.468;2023-03-11T07:51:24;1.00;99.90
22065;DHT22;11197;53.110;8.468;2023-03-11T07:53:52;1.00;99.90
22065;DHT22;11197;53.110;8.468;2023-03-11T07:56:20;1.00;99.90
22065;DHT22;11197;53.110;8.468;2023-03-11T07:58:47;1.10;99.90
22065;DHT22;11197;53.110;8.468;2023-03-11T08:01:18;1.00;99.90
22065;DHT22;11197;53.110;8.468;2023-03-11T08:03:46;1.00;99.90
22065;DHT22;11197;53.110;8.468;2023-03-11T08:06:17;1.10;99.90
22065;DHT22;11197;53.110;8.468;2023-03-11T08:08:44;1.10;99.90
22065;DHT22;11197;53.110;8.468;2023-03-11T08:11:10;1.10;99.90
22065;DHT22;11197;53.110;8.468;2023-03-11T08:13:38;1.10;99.90
22065;DHT22;11197;53.110;8.468;2023-03-11T08:16:05;1.10;99.90
22065;DHT22;11197;53.110;8.468;2023-03-11T08:18:32;1.20;99.90
22065;DHT22;11197;53.110;8.468;2023-03-11T08:21:02;1.20;99.90
22065;DHT22;11197;53.110;8.468;2023-03-11T08:23:29;1.20;99.90
22065;DHT22;11197;53.110;8.468;2023-03-11T08:25:55;1.20;99.90
22065;DHT22;11197;53.110;8.468;2023-03-11T08:28:21;1.20;99.90
22065;DHT22;11197;53.110;8.468;2023-03-11T08:30:47;1.20;99.90
22065;DHT22;11197;53.110;8.468;2023-03-11T08:33:13;1.30;99.90
22065;DHT22;11197;53.110;8.468;2023-03-11T08:35:39;1.30;99.90
22065;DHT22;11197;53.110;8.468;2023-03-11T08:38:05;1.30;99.90
22065;DHT22;11197;53.110;8.468;2023-03-11T08:40:30;1.60;99.90
22065;DHT22;11197;53.110;8.468;2023-03-11T08:42:56;2.30;99.90
22065;DHT22;11197;53.110;8.468;2023-03-11T08:45:22;2.50;99.90
22065;DHT22;11197;53.110;8.468;2023-03-11T08:47:49;2.50;99.90
22065;DHT22;11197;53.110;8.468;2023-03-11T08:50:17;2.40;99.90
22065;DHT22;11197;53.110;8.468;2023-03-11T08:52:44;2.30;99.90
22065;DHT22;11197;53.110;8.468;2023-03-11T08:55:15;2.20;99.90
22065;DHT22;11197;53.110;8.468;2023-03-11T08:57:43;2.10;99.90
22065;DHT22;11197;53.110;8.468;2023-03-11T09:00:11;2.00;99.90
22065;DHT22;11197;53.110;8.468;2023-03-11T09:02:37;1.90;99.90
22065;DHT22;11197;53.110;8.468;2023-03-11T09:05:03;1.80;99.90
22065;DHT22;11197;53.110;8.468;2023-03-11T09:07:29;2.40;99.90
22065;DHT22;11197;53.110;8.468;2023-03-11T09:09:55;2.50;99.90
22065;DHT22;11197;53.110;8.468;2023-03-11T09:12:22;2.50;99.90
22065;DHT22;11197;53.110;8.468;2023-03-11T09:14:48;2.50;99.90
22065;DHT22;11197;53.110;8.468;2023-03-11T09:17:14;2.70;99.90
22065;DHT22;11197;53.110;8.468;2023-03-11T09:19:39;2.70;99.90
22065;DHT22;11197;53.110;8.468;2023-03-11T09:22:05;2.60;99.90
22065;DHT22;11197;53.110;8.468;2023-03-11T09:24:33;2.50;99.90
22065;DHT22;11197;53.110;8.468;2023-03-11T09:26:59;2.40;99.90
22065;DHT22;11197;53.110;8.468;2023-03-11T09:29:25;2.40;99.90
22065;DHT22;11197;53.110;8.468;2023-03-11T09:31:51;2.30;99.90
22065;DHT22;11197;53.110;8.468;2023-03-11T09:34:17;2.20;99.90
22065;DHT22;11197;53.110;8.468;2023-03-11T09:36:43;2.10;99.90
22065;DHT22;11197;53.110;8.468;2023-03-11T09:39:10;2.10;99.90
22065;DHT22;11197;53.110;8.468;2023-03-11T09:41:53;2.00;99.90
22065;DHT22;11197;53.110;8.468;2023-03-11T09:57:59;2.40;99.90
22065;DHT22;11197;53.110;8.468;2023-03-11T10:00:26;2.40;99.90
22065;DHT22;11197;53.110;8.468;2023-03-11T10:02:52;2.40;99.90
22065;DHT22;11197;53.110;8.468;2023-03-11T10:05:25;2.30;99.90
22065;DHT22;11197;53.110;8.468;2023-03-11T10:08:08;2.20;99.90
22065;DHT22;11197;53.110;8.468;2023-03-11T10:10:44;2.20;99.90
22065;DHT22;11197;53.110;8.468;2023-03-11T10:13:23;2.30;99.90
22065;DHT22;11197;53.110;8.468;2023-03-11T10:24:46;2.60;99.90
22065;DHT22;11197;53.110;8.468;2023-03-11T10:27:20;2.40;99.90
22065;DHT22;11197;53.110;8.468;2023-03-11T10:33:01;2.40;99.90
22065;DHT22;11197;53.110;8.468;2023-03-11T10:35:56;2.40;99.90
22065;DHT22;11197;53.110;8.468;2023-03-11T10:38:33;2.30;99.90
22065;DHT22;11197;53.110;8.468;2023-03-11T10:41:13;2.30;99.90
22065;DHT22;11197;53.110;8.468;2023-03-11T10:43:44;2.30;99.90
22065;DHT22;11197;53.110;8.468;2023-03-11T10:46:24;2.30;99.90
22065;DHT22;11197;53.110;8.468;2023-03-11T10:48:50;2.30;99.90
22065;DHT22;11197;53.110;8.468;2023-03-11T10:51:19;2.30;99.90
22065;DHT22;11197;53.110;8.468;2023-03-11T10:53:58;2.30;99.90
22065;DHT22;11197;53.110;8.468;2023-03-11T10:56:38;2.30;99.90
22065;DHT22;11197;53.110;8.468;2023-03-11T11:00:03;2.40;99.90
22065;DHT22;11197;53.110;8.468;2023-03-11T11:02:39;2.50;99.90
22065;DHT22;11197;53.110;8.468;2023-03-11T11:05:27;2.50;99.90
22065;DHT22;11197;53.110;8.468;2023-03-11T11:08:08;2.50;99.90
22065;DHT22;11197;53.110;8.468;2023-03-11T11:10:36;2.50;99.90
22065;DHT22;11197;53.110;8.468;2023-03-11T11:15:40;2.50;99.90
22065;DHT22;11197;53.110;8.468;2023-03-11T11:18:17;2.50;99.90
22065;DHT22;11197;53.110;8.468;2023-03-11T11:21:07;2.50;99.90
22065;DHT22;11197;53.110;8.468;2023-03-11T11:23:42;2.60;99.90
22065;DHT22;11197;53.110;8.468;2023-03-11T11:26:25;2.60;99.90
22065;DHT22;11197;53.110;8.468;2023-03-11T11:29:13;2.60;99.90
22065;DHT22;11197;53.110;8.468;2023-03-11T11:31:43;2.60;99.90
22065;DHT22;11197;53.110;8.468;2023-03-11T11:34:30;2.60;99.90
22065;DHT22;11197;53.110;8.468;2023-03-11T11:36:58;2.60;99.90
22065;DHT22;11197;53.110;8.468;2023-03-11T11:39:28;2.60;99.90
22065;DHT22;11197;53.110;8.468;2023-03-11T11:41:55;2.70;99.90
22065;DHT22;11197;53.110;8.468;2023-03-11T11:44:27;2.70;99.90
22065;DHT22;11197;53.110;8.468;2023-03-11T11:47:18;2.70;99.90
22065;DHT22;11197;53.110;8.468;2023-03-11T11:49:52;2.70;99.90
22065;DHT22;11197;53.110;8.468;2023-03-11T11:52:23;2.80;99.90
22065;DHT22;11197;53.110;8.468;2023-03-11T11:55:04;2.80;99.90
22065;DHT22;11197;53.110;8.468;2023-03-11T11:57:31;2.80;99.90
22065;DHT22;11197;53.110;8.468;2023-03-11T11:59:57;2.90;99.90
22065;DHT22;11197;53.110;8.468;2023-03-11T12:11:03;2.90;99.90
22065;DHT22;11197;53.110;8.468;2023-03-11T12:26:43;3.10;99.90
22065;DHT22;11197;53.110;8.468;2023-03-11T12:29:24;3.10;99.90
22065;DHT22;11197;53.110;8.468;2023-03-11T12:31:51;3.10;99.90
22065;DHT22;11197;53.110;8.468;2023-03-11T12:34:19;3.10;99.90
22065;DHT22;11197;53.110;8.468;2023-03-11T12:36:47;3.10;99.90
22065;DHT22;11197;53.110;8.468;2023-03-11T12:39:30;3.10;99.90
22065;DHT22;11197;53.110;8.468;2023-03-11T12:42:22;3.10;99.90
22065;DHT22;11197;53.110;8.468;2023-03-11T12:44:50;3.60;99.90
22065;DHT22;11197;53.110;8.468;2023-03-11T12:52:51;4.50;99.90
22065;DHT22;11197;53.110;8.468;2023-03-11T13:08:19;4.10;99.90
22065;DHT22;11197;53.110;8.468;2023-03-11T13:10:49;4.00;99.90
22065;DHT22;11197;53.110;8.468;2023-03-11T13:15:51;4.10;99.90
22065;DHT22;11197;53.110;8.468;2023-03-11T13:18:22;4.30;99.90
22065;DHT22;11197;53.110;8.468;2023-03-11T13:20:51;4.40;99.90
22065;DHT22;11197;53.110;8.468;2023-03-11T13:23:37;4.50;99.90
22065;DHT22;11197;53.110;8.468;2023-03-11T13:42:49;4.00;99.90
22065;DHT22;11197;53.110;8.468;2023-03-11T13:45:27;4.00;99.90
22065;DHT22;11197;53.110;8.468;2023-03-11T13:50:35;3.90;99.90
22065;DHT22;11197;53.110;8.468;2023-03-11T13:53:12;3.90;99.90
22065;DHT22;11197;53.110;8.468;2023-03-11T13:55:43;3.90;99.90
22065;DHT22;11197;53.110;8.468;2023-03-11T13:58:17;3.90;99.90
22065;DHT22;11197;53.110;8.468;2023-03-11T14:00:49;3.90;99.90
22065;DHT22;11197;53.110;8.468;2023-03-11T14:03:17;3.90;99.90
22065;DHT22;11197;53.110;8.468;2023-03-11T14:05:49;3.90;99.90
22065;DHT22;11197;53.110;8.468;2023-03-11T14:08:30;3.90;99.90
22065;DHT22;11197;53.110;8.468;2023-03-11T14:11:01;3.90;99.90
22065;DHT22;11197;53.110;8.468;2023-03-11T14:13:32;3.90;99.90
22065;DHT22;11197;53.110;8.468;2023-03-11T14:21:04;3.90;99.90
22065;DHT22;11197;53.110;8.468;2023-03-11T14:23:34;3.90;99.90
22065;DHT22;11197;53.110;8.468;2023-03-11T14:26:11;3.90;99.90
22065;DHT22;11197;53.110;8.468;2023-03-11T14:28:41;3.90;99.90
22065;DHT22;11197;53.110;8.468;2023-03-11T14:31:23;4.00;99.90
22065;DHT22;11197;53.110;8.468;2023-03-11T14:34:25;3.90;99.90
22065;DHT22;11197;53.110;8.468;2023-03-11T14:36:57;4.00;99.90
22065;DHT22;11197;53.110;8.468;2023-03-11T14:39:35;3.90;99.90
22065;DHT22;11197;53.110;8.468;2023-03-11T14:42:21;3.90;99.90
22065;DHT22;11197;53.110;8.468;2023-03-11T14:49:56;4.00;99.90
22065;DHT22;11197;53.110;8.468;2023-03-11T14:52:45;3.90;99.90
22065;DHT22;11197;53.110;8.468;2023-03-11T14:55:15;3.90;99.90
22065;DHT22;11197;53.110;8.468;2023-03-11T14:58:01;3.90;99.90
22065;DHT22;11197;53.110;8.468;2023-03-11T15:00:34;4.00;99.90
22065;DHT22;11197;53.110;8.468;2023-03-11T15:03:12;4.00;99.90
22065;DHT22;11197;53.110;8.468;2023-03-11T15:08:33;4.00;99.90
22065;DHT22;11197;53.110;8.468;2023-03-11T15:13:26;4.00;99.90
22065;DHT22;11197;53.110;8.468;2023-03-11T15:15:57;4.00;99.90
22065;DHT22;11197;53.110;8.468;2023-03-11T15:18:24;4.00;99.90
22065;DHT22;11197;53.110;8.468;2023-03-11T15:21:21;4.00;99.90
22065;DHT22;11197;53.110;8.468;2023-03-11T15:24:02;4.00;99.90
22065;DHT22;11197;53.110;8.468;2023-03-11T15:26:34;4.00;99.90
22065;DHT22;11197;53.110;8.468;2023-03-11T15:29:13;4.00;99.90
22065;DHT22;11197;53.110;8.468;2023-03-11T15:31:41;4.00;99.90
22065;DHT22;11197;53.110;8.468;2023-03-11T15:41:44;4.10;99.90
22065;DHT22;11197;53.110;8.468;2023-03-11T15:44:24;4.10;99.90
22065;DHT22;11197;53.110;8.468;2023-03-11T15:46:52;4.10;99.90
22065;DHT22;11197;53.110;8.468;2023-03-11T15:49:18;4.10;99.90
22065;DHT22;11197;53.110;8.468;2023-03-11T15:51:44;4.10;99.90
22065;DHT22;11197;53.110;8.468;2023-03-11T15:54:10;4.00;99.90
22065;DHT22;11197;53.110;8.468;2023-03-11T15:56:37;4.00;99.90
22065;DHT22;11197;53.110;8.468;2023-03-11T15:59:03;4.00;99.90
22065;DHT22;11197;53.110;8.468;2023-03-11T16:01:29;4.00;99.90
22065;DHT22;11197;53.110;8.468;2023-03-11T16:03:58;4.00;99.90
22065;DHT22;11197;53.110;8.468;2023-03-11T16:06:24;3.90;99.90
22065;DHT22;11197;53.110;8.468;2023-03-11T16:08:50;4.00;99.90
22065;DHT22;11197;53.110;8.468;2023-03-11T16:11:18;3.90;99.90
22065;DHT22;11197;53.110;8.468;2023-03-11T16:13:44;3.90;99.90
22065;DHT22;11197;53.110;8.468;2023-03-11T16:16:19;3.90;99.90
22065;DHT22;11197;53.110;8.468;2023-03-11T16:18:45;3.90;99.90
22065;DHT22;11197;53.110;8.468;2023-03-11T16:21:15;3.90;99.90
22065;DHT22;11197;53.110;8.468;2023-03-11T16:23:41;3.90;99.90
22065;DHT22;11197;53.110;8.468;2023-03-11T16:26:09;3.90;99.90
22065;DHT22;11197;53.110;8.468;2023-03-11T16:28:36;3.90;99.90
22065;DHT22;11197;53.110;8.468;2023-03-11T16:31:03;3.90;99.90
22065;DHT22;11197;53.110;8.468;2023-03-11T16:33:29;3.90;99.90
22065;DHT22;11197;53.110;8.468;2023-03-11T16:35:54;3.80;99.90
22065;DHT22;11197;53.110;8.468;2023-03-11T16:38:21;3.80;99.90
22065;DHT22;11197;53.110;8.468;2023-03-11T16:41:15;3.80;99.90
22065;DHT22;11197;53.110;8.468;2023-03-11T16:43:41;3.80;99.90
22065;DHT22;11197;53.110;8.468;2023-03-11T16:46:07;3.70;99.90
22065;DHT22;11197;53.110;8.468;2023-03-11T16:48:34;3.70;99.90
22065;DHT22;11197;53.110;8.468;2023-03-11T16:51:00;3.70;99.90
22065;DHT22;11197;53.110;8.468;2023-03-11T16:53:26;3.70;99.90
22065;DHT22;11197;53.110;8.468;2023-03-11T16:55:52;3.70;99.90
22065;DHT22;11197;53.110;8.468;2023-03-11T16:58:18;3.70;99.90
22065;DHT22;11197;53.110;8.468;2023-03-11T17:00:44;3.70;99.90
22065;DHT22;11197;53.110;8.468;2023-03-11T17:03:12;3.70;99.90
22065;DHT22;11197;53.110;8.468;2023-03-11T17:05:38;3.70;99.90
22065;DHT22;11197;53.110;8.468;2023-03-11T17:08:05;3.70;99.90
22065;DHT22;11197;53.110;8.468;2023-03-11T17:10:42;3.70;99.90
22065;DHT22;11197;53.110;8.468;2023-03-11T17:13:10;3.70;99.90
22065;DHT22;11197;53.110;8.468;2023-03-11T17:15:36;3.70;99.90
22065;DHT22;11197;53.110;8.468;2023-03-11T17:18:09;3.60;99.90
22065;DHT22;11197;53.110;8.468;2023-03-11T17:20:38;3.70;99.90
22065;DHT22;11197;53.110;8.468;2023-03-11T17:23:04;3.60;99.90
22065;DHT22;11197;53.110;8.468;2023-03-11T17:25:30;3.70;99.90
22065;DHT22;11197;53.110;8.468;2023-03-11T17:27:56;3.60;99.90
22065;DHT22;11197;53.110;8.468;2023-03-11T17:30:22;3.60;99.90
22065;DHT22;11197;53.110;8.468;2023-03-11T17:32:48;3.60;99.90
22065;DHT22;11197;53.110;8.468;2023-03-11T17:35:14;3.60;99.90
22065;DHT22;11197;53.110;8.468;2023-03-11T17:37:40;3.50;99.90
22065;DHT22;11197;53.110;8.468;2023-03-11T17:40:06;3.40;99.90
22065;DHT22;11197;53.110;8.468;2023-03-11T17:42:32;3.40;99.90
22065;DHT22;11197;53.110;8.468;2023-03-11T17:44:58;3.40;99.90
22065;DHT22;11197;53.110;8.468;2023-03-11T17:47:24;3.30;99.90
22065;DHT22;11197;53.110;8.468;2023-03-11T17:49:51;3.30;99.90
22065;DHT22;11197;53.110;8.468;2023-03-11T17:52:17;3.20;99.90
22065;DHT22;11197;53.110;8.468;2023-03-11T17:54:43;3.20;99.90
22065;DHT22;11197;53.110;8.468;2023-03-11T17:57:10;3.20;99.90
22065;DHT22;11197;53.110;8.468;2023-03-11T17:59:35;3.10;99.90
22065;DHT22;11197;53.110;8.468;2023-03-11T18:02:01;3.10;99.90
22065;DHT22;11197;53.110;8.468;2023-03-11T18:04:27;3.00;99.90